Time;durP1;ratioP1;P1;durP2;ratioP2;P2;SDS_P1;SDS_P2;PMS_P1;PMS_P2;Temp;Humidity;BMP_temperature;BMP_pressure;BME280_temperature;BME280_humidity;BME280_pressure;Samples;Min_cycle;Max_cycle;Signal;HPM_P1;HPM_P2
2022/07/21 00:00:56;;;;;;;6.57;3.88;;;;;;;20.61;100.00;101745.16;5072359;28;20114;-38
2022/07/21 00:03:24;;;;;;;7.80;4.28;;;;;;;20.61;100.00;101736.66;5072181;28;20132;-33
2022/07/21 00:05:51;;;;;;;7.75;4.10;;;;;;;20.61;100.00;101736.66;5073051;28;20486;-32
2022/07/21 00:08:19;;;;;;;7.43;4.15;;;;;;;20.61;100.00;101736.66;5071995;28;20048;-33
2022/07/21 00:10:47;;;;;;;7.00;3.55;;;;;;;20.60;100.00;101729.31;5074047;28;20047;-31
2022/07/21 00:13:15;;;;;;;10.00;3.80;;;;;;;20.61;100.00;101736.66;5073749;28;20174;-33
2022/07/21 00:15:45;;;;;;;7.32;3.88;;;;;;;20.61;100.00;101733.81;5073383;28;20051;-34
2022/07/21 00:18:13;;;;;;;6.78;4.07;;;;;;;20.60;100.00;101720.81;5073384;28;20067;-31
2022/07/21 00:20:41;;;;;;;7.78;4.40;;;;;;;20.58;100.00;101717.53;5073415;28;20508;-34
2022/07/21 00:23:09;;;;;;;7.28;4.18;;;;;;;20.56;100.00;101717.03;5072574;28;20047;-35
2022/07/21 00:25:37;;;;;;;7.05;4.28;;;;;;;20.56;100.00;101711.38;5073594;28;20140;-38
2022/07/21 00:28:06;;;;;;;7.93;4.13;;;;;;;20.54;100.00;101710.88;5073656;28;20069;-33
2022/07/21 00:30:34;;;;;;;7.43;4.18;;;;;;;20.52;100.00;101704.72;5072934;28;20135;-32
2022/07/21 00:33:04;;;;;;;6.97;3.72;;;;;;;20.50;100.00;101713.56;5073526;28;20456;-33
2022/07/21 00:35:32;;;;;;;7.00;4.43;;;;;;;20.48;100.00;101706.59;5073493;28;20071;-35
2022/07/21 00:38:00;;;;;;;9.75;4.60;;;;;;;20.45;100.00;101702.44;5072847;28;20052;-42
2022/07/21 00:40:28;;;;;;;9.65;5.43;;;;;;;20.46;100.00;101689.09;5073244;28;20495;-36
2022/07/21 00:42:56;;;;;;;9.48;5.68;;;;;;;20.46;100.00;101692.75;5073633;28;20094;-36
2022/07/21 00:45:24;;;;;;;11.52;6.53;;;;;;;20.45;100.00;101682.59;5072616;28;20114;-37
2022/07/21 00:47:52;;;;;;;10.55;6.25;;;;;;;20.46;100.00;101677.75;5073636;28;20151;-34
2022/07/21 00:50:22;;;;;;;11.77;6.90;;;;;;;20.46;100.00;101667.22;5072198;28;20143;-32
2022/07/21 00:52:51;;;;;;;9.45;6.53;;;;;;;20.45;100.00;101671.25;5072718;28;20052;-35
2022/07/21 00:55:22;;;;;;;11.00;6.78;;;;;;;20.44;100.00;101665.91;5072810;28;20127;-40
2022/07/21 00:57:51;;;;;;;11.57;6.97;;;;;;;20.42;100.00;101654.91;5072685;28;20063;-35
2022/07/21 01:00:21;;;;;;;11.75;6.85;;;;;;;20.39;100.00;101658.44;5072777;28;20131;-37
2022/07/21 01:02:50;;;;;;;11.13;6.40;;;;;;;20.38;100.00;101661.66;5073267;28;20139;-32
2022/07/21 01:05:18;;;;;;;9.32;5.97;;;;;;;20.38;100.00;101655.97;5072126;28;20083;-33
2022/07/21 01:07:50;;;;;;;10.30;6.07;;;;;;;20.36;100.00;101661.97;5073159;28;20512;-38
2022/07/21 01:10:21;;;;;;;11.82;5.68;;;;;;;20.36;100.00;101667.63;5072340;28;20511;-34
2022/07/21 01:12:49;;;;;;;9.73;5.55;;;;;;;20.35;100.00;101677.31;5072386;28;20053;-34
2022/07/21 01:15:19;;;;;;;9.13;4.95;;;;;;;20.35;100.00;101677.31;5072254;28;20131;-38
2022/07/21 01:17:48;;;;;;;10.20;5.68;;;;;;;20.36;100.00;101672.47;5073137;28;20049;-33
2022/07/21 01:20:17;;;;;;;7.43;5.40;;;;;;;20.36;100.00;101675.31;5071678;28;20045;-41
2022/07/21 01:22:50;;;;;;;8.32;5.90;;;;;;;20.36;100.00;101675.31;5072979;28;20084;-42
2022/07/21 01:25:19;;;;;;;9.00;5.57;;;;;;;20.34;100.00;101675.66;5072431;28;20040;-36
2022/07/21 01:27:47;;;;;;;7.95;5.35;;;;;;;20.34;100.00;101663.47;5061190;28;20049;-33
2022/07/21 01:30:16;;;;;;;10.68;5.60;;;;;;;20.35;100.00;101673.66;5072220;28;20037;-31
2022/07/21 01:32:44;;;;;;;6.85;4.78;;;;;;;20.35;100.00;101676.47;5071962;28;20051;-34
2022/07/21 01:35:15;;;;;;;10.30;5.55;;;;;;;20.35;100.00;101670.81;5072151;28;20530;-33
2022/07/21 01:37:45;;;;;;;9.90;4.90;;;;;;;20.34;100.00;101671.97;5072417;28;20087;-37
2022/07/21 01:43:01;;;;;;;9.73;5.90;;;;;;;20.31;100.00;101676.34;5070707;28;20064;-32
2022/07/21 01:45:34;;;;;;;6.68;4.82;;;;;;;20.32;100.00;101671.50;5072128;28;20040;-32
2022/07/21 01:48:02;;;;;;;8.52;5.20;;;;;;;20.31;100.00;101676.34;5071403;28;20055;-35
2022/07/21 01:50:30;;;;;;;8.98;4.82;;;;;;;20.30;100.00;101675.50;5071830;28;20087;-31
2022/07/21 01:52:59;;;;;;;7.25;4.55;;;;;;;20.27;100.00;101670.53;5072177;28;20048;-36
2022/07/21 01:55:29;;;;;;;7.68;4.53;;;;;;;20.27;100.00;101669.69;5071576;28;20048;-34
2022/07/21 01:57:57;;;;;;;6.45;3.92;;;;;;;20.24;100.00;101673.22;5071527;28;20361;-41
2022/07/21 02:00:25;;;;;;;7.03;4.00;;;;;;;20.22;100.00;101667.88;5071858;28;20044;-32
2022/07/21 02:02:53;;;;;;;7.15;4.28;;;;;;;20.18;100.00;101666.91;5071006;28;20058;-38
2022/07/21 02:05:21;;;;;;;7.47;4.28;;;;;;;20.17;100.00;101665.28;5071871;28;20052;-35
2022/07/21 02:07:49;;;;;;;8.52;3.78;;;;;;;20.10;100.00;101665.00;5070214;28;20060;-33
2022/07/21 02:10:16;;;;;;;6.20;3.50;;;;;;;20.06;100.00;101664.00;5070329;28;20040;-40
2022/07/21 02:12:46;;;;;;;7.40;3.58;;;;;;;20.00;100.00;101656.88;5071465;28;20048;-40
2022/07/21 02:15:13;;;;;;;9.73;3.63;;;;;;;19.95;100.00;101657.09;5071117;28;20053;-32
2022/07/21 02:17:42;;;;;;;8.18;3.47;;;;;;;19.91;100.00;101654.13;5071225;28;20045;-38
2022/07/21 02:20:11;;;;;;;8.73;3.38;;;;;;;19.90;100.00;101655.28;5071980;28;20049;-32
2022/07/21 02:22:38;;;;;;;6.30;2.97;;;;;;;19.89;100.00;101667.78;5070446;28;20611;-31
2022/07/21 02:25:07;;;;;;;7.68;3.33;;;;;;;19.89;100.00;101652.78;5071819;28;20103;-33
2022/07/21 02:27:34;;;;;;;7.18;3.28;;;;;;;19.86;100.00;101659.97;5071181;28;20044;-40
2022/07/21 02:30:04;;;;;;;7.32;3.67;;;;;;;19.82;100.00;101667.50;5071013;28;20072;-36
2022/07/21 02:32:32;;;;;;;8.20;3.60;;;;;;;19.79;100.00;101659.69;5071174;28;20050;-37
2022/07/21 02:35:00;;;;;;;7.15;3.55;;;;;;;19.77;100.00;101661.22;5061053;28;20120;-41
2022/07/21 02:37:28;;;;;;;8.82;3.92;;;;;;;19.76;100.00;101665.22;5070613;28;20041;-38
2022/07/21 02:39:56;;;;;;;10.27;4.35;;;;;;;19.74;100.00;101661.91;5071572;28;20059;-31
2022/07/21 02:42:24;;;;;;;8.48;4.10;;;;;;;19.75;100.00;101670.06;5071069;28;20044;-32
2022/07/21 02:44:52;;;;;;;6.80;3.58;;;;;;;19.72;100.00;101653.75;5066914;28;20399;-38
2022/07/21 02:47:21;;;;;;;8.73;4.28;;;;;;;19.70;100.00;101652.41;5071249;28;20064;-34
2022/07/21 02:49:48;;;;;;;8.73;3.80;;;;;;;19.68;100.00;101651.94;5070903;28;20462;-31
2022/07/21 02:52:18;;;;;;;7.72;3.90;;;;;;;19.67;100.00;101648.25;5071450;28;20049;-33
2022/07/21 02:54:48;;;;;;;8.43;4.10;;;;;;;19.69;100.00;101647.91;5071170;28;20047;-41
2022/07/21 02:57:16;;;;;;;7.75;4.55;;;;;;;19.70;100.00;101656.06;5070323;28;20056;-33
2022/07/21 02:59:43;;;;;;;9.98;5.10;;;;;;;19.72;100.00;101650.06;5071232;28;20048;-34
2022/07/21 03:02:11;;;;;;;8.70;4.88;;;;;;;19.71;100.00;101645.59;5051289;28;20060;-39
2022/07/21 03:04:41;;;;;;;8.02;4.10;;;;;;;19.69;100.00;101647.91;5069181;28;20460;-36
2022/07/21 03:07:08;;;;;;;6.70;4.28;;;;;;;19.67;100.00;101645.44;5071338;28;20106;-37
2022/07/21 03:09:36;;;;;;;12.68;5.63;;;;;;;19.67;100.00;101644.59;5073516;28;20074;-35
2022/07/21 03:12:04;;;;;;;9.48;4.38;;;;;;;19.66;100.00;101649.44;5074309;28;20044;-35
2022/07/21 03:14:32;;;;;;;9.10;4.70;;;;;;;19.66;100.00;101645.78;5074645;28;20116;-33
2022/07/21 03:17:02;;;;;;;9.43;4.43;;;;;;;19.64;100.00;101656.59;5075237;28;20052;-32
2022/07/21 03:19:29;;;;;;;7.63;4.00;;;;;;;19.61;100.00;101656.13;5073987;28;20063;-32
2022/07/21 03:21:59;;;;;;;7.43;4.30;;;;;;;19.59;100.00;101644.28;5074879;28;20040;-35
2022/07/21 03:24:26;;;;;;;8.45;3.95;;;;;;;19.57;100.00;101643.00;5074571;28;20040;-32
2022/07/21 03:26:54;;;;;;;10.35;4.25;;;;;;;19.58;100.00;101647.50;5074370;28;20055;-38
2022/07/21 03:29:22;;;;;;;6.72;4.25;;;;;;;19.59;100.00;101655.63;5074558;28;20060;-37
2022/07/21 03:31:50;;;;;;;6.95;4.43;;;;;;;19.61;100.00;101653.28;5073809;28;20042;-36
2022/07/21 03:34:18;;;;;;;10.32;5.20;;;;;;;19.65;100.00;101663.94;5073884;28;20040;-36
2022/07/21 03:36:46;;;;;;;12.45;5.85;;;;;;;19.65;100.00;101659.09;5074585;28;20051;-36
2022/07/21 03:39:15;;;;;;;16.73;7.15;;;;;;;19.65;100.00;101661.09;5073601;28;20041;-40
2022/07/21 03:41:43;;;;;;;14.68;7.15;;;;;;;19.62;100.00;101659.78;5074481;28;20047;-35
2022/07/21 03:44:11;;;;;;;21.58;8.88;;;;;;;19.60;100.00;101659.28;5073829;28;20052;-32
2022/07/21 03:46:39;;;;;;;17.13;6.95;;;;;;;19.56;100.00;101659.16;5070865;28;20525;-33
2022/07/21 03:49:06;;;;;;;13.52;6.53;;;;;;;19.54;100.00;101658.66;5072576;28;20040;-40
2022/07/21 03:51:34;;;;;;;12.48;6.15;;;;;;;19.53;100.00;101657.00;5072819;28;20140;-39
2022/07/21 03:54:02;;;;;;;14.82;6.90;;;;;;;19.51;100.00;101653.69;5072297;28;20084;-36
2022/07/21 03:56:31;;;;;;;18.98;8.48;;;;;;;19.48;100.00;101656.31;5073171;28;20055;-33
2022/07/21 03:58:59;;;;;;;18.75;7.85;;;;;;;19.46;100.00;101656.66;5073112;28;20049;-35
2022/07/21 04:01:27;;;;;;;17.13;8.02;;;;;;;19.40;100.00;101651.53;5072043;28;20056;-41
2022/07/21 04:03:55;;;;;;;16.67;7.50;;;;;;;19.36;100.00;101650.56;5074165;28;20078;-40
2022/07/21 04:06:23;;;;;;;16.05;7.25;;;;;;;19.32;100.00;101656.06;5073958;28;20131;-40
2022/07/21 04:08:51;;;;;;;13.20;6.20;;;;;;;19.30;100.00;101646.25;5073562;28;20055;-38
2022/07/21 04:11:19;;;;;;;12.23;6.75;;;;;;;19.26;100.00;101649.75;5073682;28;20048;-33
2022/07/21 04:13:49;;;;;;;14.68;7.10;;;;;;;19.25;100.00;101648.09;5074031;28;20052;-41
2022/07/21 04:16:16;;;;;;;18.73;8.43;;;;;;;19.23;100.00;101646.75;5072625;28;20045;-41
2022/07/21 04:18:44;;;;;;;12.48;6.13;;;;;;;19.23;100.00;101646.75;5073694;28;20052;-40
2022/07/21 04:21:12;;;;;;;11.98;6.55;;;;;;;19.24;100.00;101642.78;5073200;28;20312;-41
2022/07/21 04:23:40;;;;;;;13.98;6.68;;;;;;;19.25;100.00;101635.94;5073765;28;20147;-34
2022/07/21 04:26:08;;;;;;;12.57;7.38;;;;;;;19.25;100.00;101638.78;5073694;28;20051;-32
2022/07/21 04:28:36;;;;;;;15.18;8.55;;;;;;;19.23;100.00;101639.09;5072921;28;20048;-32
2022/07/21 04:31:05;;;;;;;16.95;8.23;;;;;;;19.24;100.00;101642.78;5073312;28;20048;-40
2022/07/21 04:33:33;;;;;;;14.63;7.80;;;;;;;19.24;100.00;101640.78;5073900;28;20040;-39
2022/07/21 04:36:05;;;;;;;15.48;8.00;;;;;;;19.24;100.00;101642.78;5072927;28;20044;-41
2022/07/21 04:38:33;;;;;;;14.93;7.60;;;;;;;19.23;100.00;101647.59;5072870;28;20063;-38
2022/07/21 04:41:00;;;;;;;17.17;9.93;;;;;;;19.22;100.00;101645.94;5073639;28;20064;-32
2022/07/21 04:43:28;;;;;;;14.80;8.73;;;;;;;19.22;100.00;101642.28;5072533;28;20458;-32
2022/07/21 04:45:57;;;;;;;16.50;10.35;;;;;;;19.22;100.00;101650.75;5073397;28;20060;-34
2022/07/21 04:48:27;;;;;;;15.43;9.45;;;;;;;19.21;100.00;101647.09;5073480;28;20056;-35
2022/07/21 04:50:55;;;;;;;13.88;8.07;;;;;;;19.21;100.00;101649.94;5072726;28;20052;-32
2022/07/21 04:53:23;;;;;;;17.75;10.07;;;;;;;19.23;100.00;101652.44;5073084;28;20127;-33
2022/07/21 04:55:51;;;;;;;13.20;8.38;;;;;;;19.24;100.00;101648.44;5073392;28;20059;-44
2022/07/21 04:58:19;;;;;;;8.75;6.38;;;;;;;19.24;100.00;101646.44;5071881;28;20033;-32
2022/07/21 05:00:46;;;;;;;13.20;8.52;;;;;;;19.25;100.00;101653.75;5073182;28;20051;-36
2022/07/21 05:03:14;;;;;;;15.07;8.10;;;;;;;19.26;100.00;101658.25;5073019;28;20047;-42
2022/07/21 05:05:43;;;;;;;13.77;8.88;;;;;;;19.27;100.00;101654.25;5072433;28;20509;-32
2022/07/21 05:08:11;;;;;;;14.60;9.32;;;;;;;19.28;100.00;101650.25;5072843;28;20049;-33
2022/07/21 05:10:39;;;;;;;14.55;7.63;;;;;;;19.31;100.00;101651.56;5072263;28;20120;-34
2022/07/21 05:13:07;;;;;;;10.30;7.95;;;;;;;19.33;100.00;101649.25;5072696;28;20044;-34
2022/07/21 05:15:35;;;;;;;12.15;7.93;;;;;;;19.33;100.00;101652.06;5072929;28;20119;-39
2022/07/21 05:18:08;;;;;;;11.50;6.53;;;;;;;19.34;100.00;101645.25;5067198;28;20473;-32
2022/07/21 05:20:36;;;;;;;11.48;8.10;;;;;;;19.34;100.00;101650.06;5072005;28;20131;-32
2022/07/21 05:23:05;;;;;;;9.75;6.20;;;;;;;19.35;100.00;101649.72;5071391;28;20040;-29
2022/07/21 05:25:35;;;;;;;13.88;8.35;;;;;;;19.34;100.00;101642.41;5069657;28;20148;-32
2022/07/21 05:28:03;;;;;;;11.20;6.95;;;;;;;19.34;100.00;101647.25;5069820;28;20056;-29
2022/07/21 05:30:31;;;;;;;9.80;6.97;;;;;;;19.36;100.00;101642.06;5071197;28;20049;-33
2022/07/21 05:32:59;;;;;;;11.98;7.70;;;;;;;19.38;100.00;101636.91;5070095;28;20545;-33
2022/07/21 05:35:26;;;;;;;10.77;6.13;;;;;;;19.39;100.00;101641.38;5071344;28;20088;-39
2022/07/21 05:37:54;;;;;;;12.65;7.70;;;;;;;19.41;100.00;101636.19;5071261;28;20063;-31
2022/07/21 05:40:24;;;;;;;8.45;5.97;;;;;;;19.42;100.00;101637.84;5070549;28;20394;-38
2022/07/21 05:42:51;;;;;;;8.65;5.82;;;;;;;19.43;100.00;101645.19;5070989;28;20052;-32
2022/07/21 05:45:19;;;;;;;9.45;6.45;;;;;;;19.45;100.00;101643.69;5071096;28;20045;-30
2022/07/21 05:47:47;;;;;;;10.52;6.18;;;;;;;19.46;100.00;101636.84;5070391;28;20056;-33
2022/07/21 05:50:15;;;;;;;12.93;7.18;;;;;;;19.47;100.00;101634.84;5070664;28;20038;-30
2022/07/21 05:52:42;;;;;;;12.68;8.63;;;;;;;19.50;100.00;101637.88;5070071;28;20041;-35
2022/07/21 05:55:11;;;;;;;10.73;7.72;;;;;;;19.53;100.00;101639.19;5070886;28;20393;-34
2022/07/21 05:57:40;;;;;;;13.18;8.80;;;;;;;19.55;100.00;101637.69;5070622;28;20040;-37
2022/07/21 06:00:14;;;;;;;14.18;8.25;;;;;;;19.58;100.00;101644.66;5070043;28;20127;-35
2022/07/21 06:02:42;;;;;;;10.48;8.02;;;;;;;19.59;100.00;101638.63;5071002;28;20390;-32
2022/07/21 06:05:10;;;;;;;11.38;7.60;;;;;;;19.59;100.00;101640.63;5070082;28;20505;-31
2022/07/21 06:07:39;;;;;;;7.50;5.88;;;;;;;19.55;100.00;101640.50;5070422;28;20051;-38
2022/07/21 06:10:07;;;;;;;10.15;6.35;;;;;;;19.56;100.00;101642.16;5070462;28;20135;-33
2022/07/21 06:12:44;;;;;;;8.90;5.90;;;;;;;19.56;100.00;101642.16;5071092;28;20045;-32
2022/07/21 06:15:13;;;;;;;9.88;7.25;;;;;;;19.55;100.00;101636.84;5069697;28;20505;-34
2022/07/21 06:17:42;;;;;;;9.90;6.78;;;;;;;19.54;100.00;101641.69;5070779;28;20052;-36
2022/07/21 06:20:11;;;;;;;11.02;7.88;;;;;;;19.52;100.00;101635.53;5070825;28;20476;-31
2022/07/21 06:22:39;;;;;;;12.70;7.80;;;;;;;19.52;100.00;101644.03;5070396;28;20131;-34
2022/07/21 06:25:07;;;;;;;9.68;7.28;;;;;;;19.54;100.00;101636.00;5070759;28;20131;-37
2022/07/21 06:27:35;;;;;;;12.55;8.52;;;;;;;19.55;100.00;101642.50;5069852;28;20056;-32
2022/07/21 06:30:06;;;;;;;9.95;7.22;;;;;;;19.55;100.00;101642.50;5069758;28;20136;-32
2022/07/21 06:32:34;;;;;;;15.05;9.50;;;;;;;19.51;100.00;101642.34;5071149;28;20079;-36
2022/07/21 06:35:02;;;;;;;11.60;8.52;;;;;;;19.51;100.00;101652.84;5069889;28;20090;-41
2022/07/21 06:37:30;;;;;;;10.02;8.10;;;;;;;19.53;100.00;101647.69;5070067;28;20056;-32
2022/07/21 06:39:57;;;;;;;12.43;8.55;;;;;;;19.55;100.00;101648.16;5070867;28;20055;-32
2022/07/21 06:42:25;;;;;;;11.63;9.02;;;;;;;19.58;100.00;101647.50;5069315;28;20118;-32
2022/07/21 06:44:53;;;;;;;11.55;8.85;;;;;;;19.58;100.00;101653.16;5070784;28;20052;-30
2022/07/21 06:47:22;;;;;;;9.13;7.78;;;;;;;19.61;100.00;101653.28;5070306;28;20107;-38
2022/07/21 06:49:50;;;;;;;9.80;7.57;;;;;;;19.66;100.00;101648.59;5069826;28;20586;-33
2022/07/21 06:52:18;;;;;;;12.57;9.40;;;;;;;19.72;100.00;101647.25;5070430;28;20611;-35
2022/07/21 06:54:46;;;;;;;11.93;8.52;;;;;;;19.79;100.00;101644.69;5068959;28;20416;-32
2022/07/21 06:57:14;;;;;;;9.50;8.13;;;;;;;19.85;100.00;101644.16;5068767;28;20043;-31
2022/07/21 06:59:42;;;;;;;8.68;6.50;;;;;;;19.89;100.00;101647.13;5070357;28;20480;-38
2022/07/21 07:02:10;;;;;;;6.85;5.55;;;;;;;19.91;100.00;101644.78;5070171;28;20040;-37
2022/07/21 07:04:40;;;;;;;7.97;5.85;;;;;;;19.92;100.00;101643.63;5069690;28;20492;-35
2022/07/21 07:07:08;;;;;;;8.35;5.32;;;;;;;19.93;100.00;101648.94;5069967;28;20048;-32
2022/07/21 07:09:36;;;;;;;8.40;6.80;;;;;;;19.98;100.00;101644.25;5070351;28;20052;-32
2022/07/21 07:12:05;;;;;;;7.82;5.72;;;;;;;20.01;100.00;101644.38;5069584;28;20413;-33
2022/07/21 07:14:53;;;;;;;6.47;5.10;;;;;;;20.03;100.00;101646.88;5070319;28;20508;-32
2022/07/21 07:17:21;;;;;;;9.52;5.82;;;;;;;20.10;100.00;101650.81;5069340;28;20066;-39
2022/07/21 07:19:50;;;;;;;7.75;5.60;;;;;;;20.17;100.00;101653.13;5070439;28;20048;-37
2022/07/21 07:22:18;;;;;;;8.13;5.32;;;;;;;20.19;100.00;101651.56;5070326;28;20052;-39
2022/07/21 07:24:46;;;;;;;7.38;5.20;;;;;;;20.19;100.00;101651.56;5069709;28;20135;-39
2022/07/21 07:27:14;;;;;;;7.07;4.40;;;;;;;20.19;100.00;101650.72;5069013;28;20047;-36
2022/07/21 07:29:42;;;;;;;8.13;4.93;;;;;;;20.23;100.00;101648.88;5070483;28;20041;-30
2022/07/21 07:32:10;;;;;;;7.43;4.88;;;;;;;20.28;100.00;101648.69;5069368;28;20070;-31
2022/07/21 07:34:38;;;;;;;8.40;5.25;;;;;;;20.29;100.00;101654.00;5070381;28;20052;-31
2022/07/21 07:37:07;;;;;;;7.07;4.35;;;;;;;20.32;100.00;101657.31;5070114;28;20539;-38
2022/07/21 07:39:37;;;;;;;7.72;4.57;;;;;;;20.32;100.00;101663.00;5068803;28;20044;-37
2022/07/21 07:42:05;;;;;;;7.47;4.20;;;;;;;20.33;100.00;101656.16;5069931;28;20119;-31
2022/07/21 07:44:33;;;;;;;7.13;4.85;;;;;;;20.33;100.00;101658.97;5069790;28;20040;-31
2022/07/21 07:47:02;;;;;;;10.65;5.40;;;;;;;20.33;100.00;101658.97;5068889;28;20494;-32
2022/07/21 07:49:30;;;;;;;8.95;5.53;;;;;;;20.30;100.00;101658.50;5069868;28;20143;-33
2022/07/21 07:51:59;;;;;;;7.75;5.43;;;;;;;20.28;100.00;101660.00;5070034;28;20048;-37
2022/07/21 07:54:28;;;;;;;9.23;5.13;;;;;;;20.26;100.00;101668.88;5068079;28;20048;-40
2022/07/21 07:56:55;;;;;;;7.55;4.68;;;;;;;20.24;100.00;101670.38;5072524;28;20059;-39
2022/07/21 07:59:23;;;;;;;7.72;4.93;;;;;;;20.23;100.00;101674.38;5072192;28;20127;-36
2022/07/21 08:01:51;;;;;;;7.63;4.97;;;;;;;20.21;100.00;101679.56;5073516;28;20091;-30
2022/07/21 08:04:19;;;;;;;7.32;4.60;;;;;;;20.18;100.00;101689.59;5073061;28;20047;-32
2022/07/21 08:06:47;;;;;;;6.22;4.60;;;;;;;20.18;100.00;101689.59;5072260;28;20140;-34
2022/07/21 08:09:15;;;;;;;6.20;4.60;;;;;;;20.12;100.00;101693.81;5072740;28;20442;-35
2022/07/21 08:11:46;;;;;;;5.28;4.10;;;;;;;20.04;100.00;101694.69;5073127;28;20082;-32
2022/07/21 08:14:14;;;;;;;6.80;4.00;;;;;;;20.01;100.00;101695.38;5072658;28;20476;-30
2022/07/21 08:16:42;;;;;;;5.25;3.67;;;;;;;19.97;100.00;101705.75;5073152;28;20428;-31
2022/07/21 08:19:10;;;;;;;6.93;3.80;;;;;;;19.93;100.00;101705.59;5072702;28;20078;-31
2022/07/21 08:21:38;;;;;;;4.90;3.30;;;;;;;19.91;100.00;101701.44;5072198;28;20070;-32
2022/07/21 08:24:26;;;;;;;4.38;3.20;;;;;;;19.89;100.00;101707.44;5072338;28;20044;-32
2022/07/21 08:26:55;;;;;;;4.15;3.28;;;;;;;19.90;100.00;101705.44;5071544;28;20055;-31
2022/07/21 08:29:23;;;;;;;4.07;3.40;;;;;;;19.89;100.00;101709.44;5071594;28;20143;-32
2022/07/21 08:31:50;;;;;;;4.22;3.20;;;;;;;19.89;100.00;101715.94;5072832;28;20055;-30
2022/07/21 08:34:18;;;;;;;5.18;3.13;;;;;;;19.89;100.00;101709.44;5072451;28;20113;-32
2022/07/21 08:36:46;;;;;;;4.50;3.75;;;;;;;19.86;100.00;101713.78;5072022;28;20498;-32
2022/07/21 08:39:14;;;;;;;7.13;3.90;;;;;;;19.85;100.00;101708.47;5072129;28;20053;-30
2022/07/21 08:41:42;;;;;;;7.22;4.20;;;;;;;19.85;100.00;101714.13;5071409;28;20052;-30
2022/07/21 08:44:17;;;;;;;6.50;4.18;;;;;;;19.87;100.00;101708.97;5072586;28;20448;-37
2022/07/21 08:46:50;;;;;;;7.18;4.22;;;;;;;19.91;100.00;101709.94;5072280;28;20424;-31
2022/07/21 08:49:21;;;;;;;7.25;4.57;;;;;;;19.94;100.00;101717.75;5071723;28;20101;-41
2022/07/21 08:51:51;;;;;;;9.25;5.05;;;;;;;19.96;100.00;101715.44;5071886;28;20068;-35
2022/07/21 08:54:20;;;;;;;4.78;4.03;;;;;;;19.98;100.00;101723.59;5071810;28;20135;-33
2022/07/21 08:56:48;;;;;;;8.13;5.00;;;;;;;19.99;100.00;101720.38;5071614;28;20049;-39
2022/07/21 08:59:17;;;;;;;10.48;5.20;;;;;;;19.98;100.00;101713.09;5072334;28;20127;-35
2022/07/21 09:01:45;;;;;;;9.70;5.65;;;;;;;19.94;100.00;101718.59;5068523;28;20094;-32
2022/07/21 09:04:27;;;;;;;8.43;4.70;;;;;;;19.97;100.00;101721.91;5071318;28;20086;-39
2022/07/21 09:06:58;;;;;;;7.70;5.03;;;;;;;19.96;100.00;101712.59;5068866;28;20049;-38
2022/07/21 09:09:28;;;;;;;7.20;4.85;;;;;;;19.98;100.00;101710.25;5072233;28;20125;-37
2022/07/21 09:11:57;;;;;;;4.57;3.63;;;;;;;20.00;100.00;101710.72;5068951;28;20076;-36
2022/07/21 09:14:29;;;;;;;6.00;3.75;;;;;;;20.05;100.00;101716.19;5071844;28;20040;-38
2022/07/21 09:16:59;;;;;;;4.70;3.83;;;;;;;20.06;100.00;101709.34;5070785;28;20041;-33
2022/07/21 09:19:38;;;;;;;5.50;4.13;;;;;;;20.04;100.00;101717.34;5072182;28;20630;-31
2022/07/21 09:22:14;;;;;;;6.07;3.88;;;;;;;20.04;100.00;101711.69;5071833;28;20072;-40
2022/07/21 09:24:42;;;;;;;6.78;4.45;;;;;;;20.04;100.00;101711.69;5071177;28;20414;-32
2022/07/21 09:27:12;;;;;;;5.55;3.55;;;;;;;20.04;100.00;101710.84;5070264;28;20048;-31
2022/07/21 09:29:44;;;;;;;5.68;4.13;;;;;;;20.05;100.00;101716.19;5071521;28;20091;-32
2022/07/21 09:32:31;;;;;;;5.97;3.67;;;;;;;20.05;100.00;101710.53;5069949;28;20519;-35
2022/07/21 09:35:01;;;;;;;5.47;3.80;;;;;;;20.05;100.00;101707.69;5071648;28;20127;-31
2022/07/21 09:37:34;;;;;;;6.38;3.67;;;;;;;20.10;100.00;101709.50;5071729;28;20098;-39
2022/07/21 09:40:07;;;;;;;7.40;4.45;;;;;;;20.13;100.00;101714.47;5071148;28;20052;-36
2022/07/21 09:42:37;;;;;;;6.00;4.25;;;;;;;20.12;100.00;101710.81;5071378;28;20389;-39
2022/07/21 09:45:08;;;;;;;6.75;4.10;;;;;;;20.15;100.00;101704.47;5071053;28;20037;-38
2022/07/21 09:47:38;;;;;;;7.82;4.20;;;;;;;20.18;100.00;101714.28;5071240;28;20050;-32
2022/07/21 09:50:08;;;;;;;9.52;5.03;;;;;;;20.21;100.00;101703.06;5071927;28;20048;-35
2022/07/21 09:52:54;;;;;;;8.80;4.55;;;;;;;20.30;100.00;101709.53;5070406;28;20072;-32
2022/07/21 09:55:22;;;;;;;8.70;4.68;;;;;;;20.41;100.00;101709.13;5071638;28;20074;-41
2022/07/21 09:57:50;;;;;;;6.60;4.10;;;;;;;20.48;100.00;101709.41;5070805;28;20127;-33
2022/07/21 10:00:20;;;;;;;7.90;4.30;;;;;;;20.53;100.00;101714.88;5070141;28;20061;-34
2022/07/21 10:02:49;;;;;;;6.47;3.95;;;;;;;20.55;100.00;101721.03;5070452;28;20044;-40
2022/07/21 10:05:19;;;;;;;8.48;5.55;;;;;;;20.56;100.00;101720.69;5071101;28;20498;-32
2022/07/21 10:07:49;;;;;;;7.20;4.47;;;;;;;20.58;100.00;101721.16;5070040;28;20449;-32
2022/07/21 10:10:18;;;;;;;9.65;5.00;;;;;;;20.64;100.00;101727.47;5071401;28;20061;-36
2022/07/21 10:12:49;;;;;;;5.85;4.00;;;;;;;20.69;100.00;101721.59;5070895;28;20044;-32
2022/07/21 10:15:19;;;;;;;8.77;4.82;;;;;;;20.74;100.00;101727.06;5070385;28;20052;-35
2022/07/21 10:17:52;;;;;;;7.38;4.60;;;;;;;20.77;100.00;101729.19;5070497;28;20458;-35
2022/07/21 10:20:28;;;;;;;6.22;4.43;;;;;;;20.79;100.00;101728.81;5070485;28;20068;-39
2022/07/21 10:23:03;;;;;;;6.78;4.28;;;;;;;20.82;100.00;101733.81;5071016;28;20445;-35
2022/07/21 10:25:32;;;;;;;6.95;4.38;;;;;;;20.82;100.00;101737.47;5069728;28;20040;-32
2022/07/21 10:28:22;;;;;;;7.15;4.53;;;;;;;20.89;100.00;101736.94;5070326;28;20087;-41
2022/07/21 10:30:54;;;;;;;7.13;4.18;;;;;;;20.89;100.00;101742.59;5059109;28;20051;-38
2022/07/21 10:33:43;;;;;;;7.03;4.80;;;;;;;20.93;100.00;101741.56;5070616;28;20601;-39
2022/07/21 10:36:40;;;;;;;6.60;3.97;;;;;;;20.96;100.00;101738.03;5069779;28;20044;-37
2022/07/21 10:39:24;;;;;;;6.05;3.85;;;;;;;21.00;100.00;101743.81;5070672;28;20045;-38
2022/07/21 10:41:55;;;;;;;5.53;3.45;;;;;;;21.07;100.00;101743.25;5069739;28;20139;-32
2022/07/21 10:44:44;;;;;;;5.47;4.03;;;;;;;21.18;100.00;101744.50;5070267;28;20060;-32
2022/07/21 10:47:16;;;;;;;6.32;4.03;;;;;;;21.18;100.00;101750.19;5071796;28;20071;-31
2022/07/21 10:49:47;;;;;;;6.82;3.92;;;;;;;21.16;100.00;101746.84;5070957;28;20045;-31
2022/07/21 10:52:58;;;;;;;5.07;3.85;;;;;;;21.16;100.00;101744.84;5071779;28;20040;-38
2022/07/21 10:55:27;;;;;;;5.35;3.60;;;;;;;21.15;100.00;101751.72;5070129;28;20047;-31
2022/07/21 10:58:17;;;;;;;4.80;3.40;;;;;;;21.18;100.00;101753.03;5071330;28;20048;-29
2022/07/21 11:00:47;;;;;;;5.70;3.67;;;;;;;21.18;100.00;101753.03;5068218;28;20075;-32
2022/07/21 11:03:20;;;;;;;5.13;3.92;;;;;;;21.19;100.00;101760.31;5071284;28;20482;-38
2022/07/21 11:06:13;;;;;;;5.53;3.58;;;;;;;21.17;100.00;101754.19;5070924;28;20502;-37
2022/07/21 11:08:44;;;;;;;4.70;3.30;;;;;;;21.14;100.00;101771.91;5054089;28;20068;-32
2022/07/21 11:11:14;;;;;;;3.65;3.22;;;;;;;21.15;100.00;101767.91;5061810;28;20047;-40
2022/07/21 11:14:06;;;;;;;6.28;3.97;;;;;;;21.15;100.00;101762.22;5071104;28;20549;-32
2022/07/21 11:17:03;;;;;;;5.20;3.45;;;;;;;21.09;100.00;101770.13;5069781;28;20688;-33
2022/07/21 11:19:35;;;;;;;4.68;3.30;;;;;;;21.04;100.00;101769.50;5069427;28;20406;-36
2022/07/21 11:22:05;;;;;;;8.00;4.35;;;;;;;21.01;100.00;101771.03;5069395;28;20072;-33
2022/07/21 11:24:34;;;;;;;6.82;4.05;;;;;;;20.99;100.00;101774.19;5070663;28;20051;-32
2022/07/21 11:27:05;;;;;;;4.10;3.50;;;;;;;20.96;100.00;101777.75;5069886;28;20048;-39
2022/07/21 11:29:34;;;;;;;6.25;4.15;;;;;;;20.95;100.00;101778.09;5072192;28;20378;-33